sensor_id;sensor_type;location;lat;lon;timestamp;temperature;humidity
63383;DHT22;49512;48.744;9.176;2022-07-23T15:55:15;27.10;37.60
63383;DHT22;49512;48.744;9.176;2022-07-23T15:57:40;27.20;39.10
63383;DHT22;49512;48.744;9.176;2022-07-23T16:00:06;27.40;37.80
63383;DHT22;49512;48.744;9.176;2022-07-23T16:02:33;27.60;36.20
63383;DHT22;49512;48.744;9.176;2022-07-23T16:04:58;27.60;36.10
63383;DHT22;49512;48.744;9.176;2022-07-23T16:07:24;27.50;35.60
63383;DHT22;49512;48.744;9.176;2022-07-23T16:09:49;27.50;37.00
63383;DHT22;49512;48.744;9.176;2022-07-23T16:12:15;27.60;37.00
63383;DHT22;49512;48.744;9.176;2022-07-23T16:14:40;27.60;37.60
63383;DHT22;49512;48.744;9.176;2022-07-23T16:17:06;27.80;35.90
63383;DHT22;49512;48.744;9.176;2022-07-23T16:19:31;27.60;35.60
63383;DHT22;49512;48.744;9.176;2022-07-23T16:21:57;27.60;36.50
63383;DHT22;49512;48.744;9.176;2022-07-23T16:24:25;27.60;36.80
63383;DHT22;49512;48.744;9.176;2022-07-23T16:26:51;27.60;36.50
63383;DHT22;49512;48.744;9.176;2022-07-23T16:29:16;27.50;35.70
63383;DHT22;49512;48.744;9.176;2022-07-23T16:31:42;27.60;36.20
63383;DHT22;49512;48.744;9.176;2022-07-23T16:34:07;27.40;36.90
63383;DHT22;49512;48.744;9.176;2022-07-23T16:36:33;27.40;37.30
63383;DHT22;49512;48.744;9.176;2022-07-23T16:39:00;27.40;36.00
63383;DHT22;49512;48.744;9.176;2022-07-23T16:41:25;27.40;36.90
63383;DHT22;49512;48.744;9.176;2022-07-23T16:43:51;27.40;38.50
63383;DHT22;49512;48.744;9.176;2022-07-23T16:46:16;27.40;37.70
63383;DHT22;49512;48.744;9.176;2022-07-23T16:48:42;27.30;38.10
63383;DHT22;49512;48.744;9.176;2022-07-23T16:51:07;27.10;39.50
63383;DHT22;49512;48.744;9.176;2022-07-23T16:53:33;27.10;39.90
63383;DHT22;49512;48.744;9.176;2022-07-23T16:56:02;27.10;41.10
63383;DHT22;49512;48.744;9.176;2022-07-23T16:58:48;27.00;39.60
63383;DHT22;49512;48.744;9.176;2022-07-23T17:01:13;27.00;41.20
63383;DHT22;49512;48.744;9.176;2022-07-23T17:03:39;27.00;43.30
63383;DHT22;49512;48.744;9.176;2022-07-23T17:06:04;27.00;43.20
63383;DHT22;49512;48.744;9.176;2022-07-23T17:08:30;26.80;40.90
63383;DHT22;49512;48.744;9.176;2022-07-23T17:10:56;26.80;41.90
63383;DHT22;49512;48.744;9.176;2022-07-23T17:13:21;26.90;42.40
63383;DHT22;49512;48.744;9.176;2022-07-23T17:15:47;26.80;44.40
63383;DHT22;49512;48.744;9.176;2022-07-23T17:18:12;26.80;43.30
63383;DHT22;49512;48.744;9.176;2022-07-23T17:20:38;26.70;44.70
63383;DHT22;49512;48.744;9.176;2022-07-23T17:23:04;26.70;43.70
63383;DHT22;49512;48.744;9.176;2022-07-23T17:25:30;26.70;43.00
63383;DHT22;49512;48.744;9.176;2022-07-23T17:27:55;26.60;42.60
63383;DHT22;49512;48.744;9.176;2022-07-23T17:30:21;26.50;44.00
63383;DHT22;49512;48.744;9.176;2022-07-23T17:32:46;26.50;45.00
63383;DHT22;49512;48.744;9.176;2022-07-23T17:35:12;26.40;46.00
63383;DHT22;49512;48.744;9.176;2022-07-23T17:37:38;26.30;45.20
63383;DHT22;49512;48.744;9.176;2022-07-23T17:40:03;26.30;46.30
63383;DHT22;49512;48.744;9.176;2022-07-23T17:42:29;26.20;46.80
63383;DHT22;49512;48.744;9.176;2022-07-23T17:44:55;26.20;47.70
63383;DHT22;49512;48.744;9.176;2022-07-23T17:47:20;26.10;46.80
63383;DHT22;49512;48.744;9.176;2022-07-23T17:49:46;26.20;47.80
63383;DHT22;49512;48.744;9.176;2022-07-23T17:52:11;26.10;49.70
63383;DHT22;49512;48.744;9.176;2022-07-23T17:54:37;26.00;49.00
63383;DHT22;49512;48.744;9.176;2022-07-23T17:57:02;26.00;48.30
63383;DHT22;49512;48.744;9.176;2022-07-23T17:59:28;26.00;49.00
63383;DHT22;49512;48.744;9.176;2022-07-23T18:01:53;25.90;49.50
63383;DHT22;49512;48.744;9.176;2022-07-23T18:04:19;25.80;51.20
63383;DHT22;49512;48.744;9.176;2022-07-23T18:06:45;25.70;50.70
63383;DHT22;49512;48.744;9.176;2022-07-23T18:09:11;25.50;50.20
63383;DHT22;49512;48.744;9.176;2022-07-23T18:11:37;25.50;51.10
63383;DHT22;49512;48.744;9.176;2022-07-23T18:14:03;25.50;51.60
63383;DHT22;49512;48.744;9.176;2022-07-23T18:16:29;25.40;52.50
63383;DHT22;49512;48.744;9.176;2022-07-23T18:18:54;25.20;51.70
63383;DHT22;49512;48.744;9.176;2022-07-23T18:21:20;25.20;53.20
63383;DHT22;49512;48.744;9.176;2022-07-23T18:23:46;25.20;53.00
63383;DHT22;49512;48.744;9.176;2022-07-23T18:26:12;25.10;53.90
63383;DHT22;49512;48.744;9.176;2022-07-23T18:28:37;25.00;52.80
63383;DHT22;49512;48.744;9.176;2022-07-23T18:31:03;25.00;54.40
63383;DHT22;49512;48.744;9.176;2022-07-23T18:33:29;25.00;54.70
63383;DHT22;49512;48.744;9.176;2022-07-23T18:35:54;24.90;54.90
63383;DHT22;49512;48.744;9.176;2022-07-23T18:38:20;24.90;54.10
63383;DHT22;49512;48.744;9.176;2022-07-23T18:40:46;24.90;55.00
63383;DHT22;49512;48.744;9.176;2022-07-23T18:43:11;24.90;54.00
63383;DHT22;49512;48.744;9.176;2022-07-23T18:45:37;24.80;54.90
63383;DHT22;49512;48.744;9.176;2022-07-23T18:48:02;24.90;54.00
63383;DHT22;49512;48.744;9.176;2022-07-23T18:50:28;24.90;55.00
63383;DHT22;49512;48.744;9.176;2022-07-23T18:52:54;24.90;55.00
63383;DHT22;49512;48.744;9.176;2022-07-23T18:55:19;24.90;55.40
63383;DHT22;49512;48.744;9.176;2022-07-23T18:57:45;24.80;55.60
63383;DHT22;49512;48.744;9.176;2022-07-23T19:00:11;24.80;56.10
63383;DHT22;49512;48.744;9.176;2022-07-23T19:02:37;24.80;55.50
63383;DHT22;49512;48.744;9.176;2022-07-23T19:05:03;24.80;55.90
63383;DHT22;49512;48.744;9.176;2022-07-23T19:07:29;24.80;54.20
63383;DHT22;49512;48.744;9.176;2022-07-23T19:09:54;24.80;54.90
63383;DHT22;49512;48.744;9.176;2022-07-23T19:12:20;24.70;55.90
63383;DHT22;49512;48.744;9.176;2022-07-23T19:14:45;24.60;56.70
63383;DHT22;49512;48.744;9.176;2022-07-23T19:17:11;24.50;56.60
63383;DHT22;49512;48.744;9.176;2022-07-23T19:19:36;24.50;56.90
63383;DHT22;49512;48.744;9.176;2022-07-23T19:22:02;24.50;56.60
63383;DHT22;49512;48.744;9.176;2022-07-23T19:24:31;24.60;55.70
63383;DHT22;49512;48.744;9.176;2022-07-23T19:26:58;24.60;56.00
63383;DHT22;49512;48.744;9.176;2022-07-23T19:29:24;24.60;56.90
63383;DHT22;49512;48.744;9.176;2022-07-23T19:31:49;24.40;58.10
63383;DHT22;49512;48.744;9.176;2022-07-23T19:34:15;24.20;58.50
63383;DHT22;49512;48.744;9.176;2022-07-23T19:36:40;24.10;60.10
63383;DHT22;49512;48.744;9.176;2022-07-23T19:39:06;24.00;59.80
63383;DHT22;49512;48.744;9.176;2022-07-23T19:41:31;24.00;60.80
63383;DHT22;49512;48.744;9.176;2022-07-23T19:43:57;23.90;62.00
63383;DHT22;49512;48.744;9.176;2022-07-23T19:46:22;23.70;62.30
63383;DHT22;49512;48.744;9.176;2022-07-23T19:48:48;23.60;62.20
63383;DHT22;49512;48.744;9.176;2022-07-23T19:51:13;23.60;63.50
63383;DHT22;49512;48.744;9.176;2022-07-23T19:53:39;23.60;64.00
63383;DHT22;49512;48.744;9.176;2022-07-23T19:56:05;23.50;64.30
63383;DHT22;49512;48.744;9.176;2022-07-23T19:58:30;23.50;62.80
63383;DHT22;49512;48.744;9.176;2022-07-23T20:00:56;23.40;64.00
63383;DHT22;49512;48.744;9.176;2022-07-23T20:03:21;23.50;64.10
63383;DHT22;49512;48.744;9.176;2022-07-23T20:05:47;23.40;63.80
63383;DHT22;49512;48.744;9.176;2022-07-23T20:08:12;23.30;65.00
63383;DHT22;49512;48.744;9.176;2022-07-23T20:10:38;23.30;66.50
63383;DHT22;49512;48.744;9.176;2022-07-23T20:13:04;23.10;66.80
63383;DHT22;49512;48.744;9.176;2022-07-23T20:15:30;23.20;66.40
63383;DHT22;49512;48.744;9.176;2022-07-23T20:17:57;23.30;65.90
63383;DHT22;49512;48.744;9.176;2022-07-23T20:20:22;23.20;66.50
63383;DHT22;49512;48.744;9.176;2022-07-23T20:22:48;23.20;67.00
63383;DHT22;49512;48.744;9.176;2022-07-23T20:25:13;23.30;67.10
63383;DHT22;49512;48.744;9.176;2022-07-23T20:27:39;23.20;66.30
63383;DHT22;49512;48.744;9.176;2022-07-23T20:30:05;23.20;67.50
63383;DHT22;49512;48.744;9.176;2022-07-23T20:32:31;23.30;65.50
63383;DHT22;49512;48.744;9.176;2022-07-23T20:34:56;23.30;66.30
63383;DHT22;49512;48.744;9.176;2022-07-23T20:37:22;23.30;65.90
63383;DHT22;49512;48.744;9.176;2022-07-23T20:39:48;23.30;67.20
63383;DHT22;49512;48.744;9.176;2022-07-23T20:42:13;23.30;67.20
63383;DHT22;49512;48.744;9.176;2022-07-23T20:44:39;23.20;65.80
63383;DHT22;49512;48.744;9.176;2022-07-23T20:47:04;23.20;66.30
63383;DHT22;49512;48.744;9.176;2022-07-23T20:49:30;23.20;67.10
63383;DHT22;49512;48.744;9.176;2022-07-23T20:51:56;23.20;67.10
63383;DHT22;49512;48.744;9.176;2022-07-23T20:54:21;23.20;67.10
63383;DHT22;49512;48.744;9.176;2022-07-23T20:56:47;23.20;67.50
63383;DHT22;49512;48.744;9.176;2022-07-23T20:59:12;23.10;66.60
63383;DHT22;49512;48.744;9.176;2022-07-23T21:01:38;23.20;67.80
63383;DHT22;49512;48.744;9.176;2022-07-23T21:04:04;23.20;67.90
63383;DHT22;49512;48.744;9.176;2022-07-23T21:06:29;23.20;67.80
63383;DHT22;49512;48.744;9.176;2022-07-23T21:08:55;23.10;67.40
63383;DHT22;49512;48.744;9.176;2022-07-23T21:11:21;23.10;68.30
63383;DHT22;49512;48.744;9.176;2022-07-23T21:13:46;23.00;68.10
63383;DHT22;49512;48.744;9.176;2022-07-23T21:16:12;23.00;67.60
63383;DHT22;49512;48.744;9.176;2022-07-23T21:18:37;23.00;67.30
63383;DHT22;49512;48.744;9.176;2022-07-23T21:21:03;22.80;68.30
63383;DHT22;49512;48.744;9.176;2022-07-23T21:23:46;22.80;69.10
63383;DHT22;49512;48.744;9.176;2022-07-23T21:26:12;22.80;69.20
63383;DHT22;49512;48.744;9.176;2022-07-23T21:28:38;22.80;68.20
63383;DHT22;49512;48.744;9.176;2022-07-23T21:31:04;22.80;69.10
63383;DHT22;49512;48.744;9.176;2022-07-23T21:33:30;22.80;69.80
63383;DHT22;49512;48.744;9.176;2022-07-23T21:35:55;22.70;70.70
63383;DHT22;49512;48.744;9.176;2022-07-23T21:38:21;22.70;70.60
63383;DHT22;49512;48.744;9.176;2022-07-23T21:40:47;22.70;71.10
63383;DHT22;49512;48.744;9.176;2022-07-23T21:43:12;22.80;70.50
63383;DHT22;49512;48.744;9.176;2022-07-23T21:45:38;22.60;70.60
63383;DHT22;49512;48.744;9.176;2022-07-23T21:48:03;22.60;69.90
63383;DHT22;49512;48.744;9.176;2022-07-23T21:50:29;22.60;71.10
63383;DHT22;49512;48.744;9.176;2022-07-23T21:52:54;22.60;71.10
63383;DHT22;49512;48.744;9.176;2022-07-23T21:55:20;22.50;71.80
63383;DHT22;49512;48.744;9.176;2022-07-23T21:57:45;22.30;72.50
63383;DHT22;49512;48.744;9.176;2022-07-23T22:00:16;22.30;73.50
63383;DHT22;49512;48.744;9.176;2022-07-23T22:02:42;22.30;73.20
63383;DHT22;49512;48.744;9.176;2022-07-23T22:05:08;22.30;73.60
63383;DHT22;49512;48.744;9.176;2022-07-23T22:07:33;22.30;72.50
63383;DHT22;49512;48.744;9.176;2022-07-23T22:09:59;22.30;73.80
63383;DHT22;49512;48.744;9.176;2022-07-23T22:12:24;22.20;74.10
63383;DHT22;49512;48.744;9.176;2022-07-23T22:14:50;22.20;73.40
63383;DHT22;49512;48.744;9.176;2022-07-23T22:17:15;22.20;72.60
63383;DHT22;49512;48.744;9.176;2022-07-23T22:19:41;22.50;73.70
63383;DHT22;49512;48.744;9.176;2022-07-23T22:22:06;22.10;73.80
63383;DHT22;49512;48.744;9.176;2022-07-23T22:24:32;22.10;73.50
63383;DHT22;49512;48.744;9.176;2022-07-23T22:26:57;22.00;74.00
63383;DHT22;49512;48.744;9.176;2022-07-23T22:29:22;22.00;74.90
63383;DHT22;49512;48.744;9.176;2022-07-23T22:31:48;21.90;76.20
63383;DHT22;49512;48.744;9.176;2022-07-23T22:34:14;21.80;76.50
63383;DHT22;49512;48.744;9.176;2022-07-23T22:36:39;21.80;75.90
63383;DHT22;49512;48.744;9.176;2022-07-23T22:39:05;21.80;75.30
63383;DHT22;49512;48.744;9.176;2022-07-23T22:41:31;21.70;76.80
63383;DHT22;49512;48.744;9.176;2022-07-23T22:43:56;21.70;76.90
63383;DHT22;49512;48.744;9.176;2022-07-23T22:46:22;21.80;75.80
63383;DHT22;49512;48.744;9.176;2022-07-23T22:48:47;21.70;76.90
63383;DHT22;49512;48.744;9.176;2022-07-23T22:51:13;21.60;77.90
63383;DHT22;49512;48.744;9.176;2022-07-23T22:53:38;21.60;77.90
63383;DHT22;49512;48.744;9.176;2022-07-23T22:56:04;21.50;78.00
63383;DHT22;49512;48.744;9.176;2022-07-23T22:58:29;21.50;77.10
63383;DHT22;49512;48.744;9.176;2022-07-23T23:00:55;21.50;77.60
63383;DHT22;49512;48.744;9.176;2022-07-23T23:03:20;21.50;77.80
63383;DHT22;49512;48.744;9.176;2022-07-23T23:05:46;21.50;78.60
63383;DHT22;49512;48.744;9.176;2022-07-23T23:08:11;21.40;78.10
63383;DHT22;49512;48.744;9.176;2022-07-23T23:10:37;21.40;79.00
63383;DHT22;49512;48.744;9.176;2022-07-23T23:13:02;21.30;79.10
63383;DHT22;49512;48.744;9.176;2022-07-23T23:15:28;21.40;79.10
63383;DHT22;49512;48.744;9.176;2022-07-23T23:17:53;21.30;78.60
63383;DHT22;49512;48.744;9.176;2022-07-23T23:20:19;21.30;79.60
63383;DHT22;49512;48.744;9.176;2022-07-23T23:22:44;21.20;79.90
63383;DHT22;49512;48.744;9.176;2022-07-23T23:25:10;21.30;80.00
63383;DHT22;49512;48.744;9.176;2022-07-23T23:27:35;21.10;79.60
63383;DHT22;49512;48.744;9.176;2022-07-23T23:30:01;21.10;80.50
63383;DHT22;49512;48.744;9.176;2022-07-23T23:32:27;21.10;80.90
63383;DHT22;49512;48.744;9.176;2022-07-23T23:34:52;21.10;80.80
63383;DHT22;49512;48.744;9.176;2022-07-23T23:37:18;21.10;80.60
63383;DHT22;49512;48.744;9.176;2022-07-23T23:39:43;21.10;81.20
63383;DHT22;49512;48.744;9.176;2022-07-23T23:42:09;21.00;81.60
63383;DHT22;49512;48.744;9.176;2022-07-23T23:44:34;21.00;81.60
63383;DHT22;49512;48.744;9.176;2022-07-23T23:47:00;20.90;81.20
63383;DHT22;49512;48.744;9.176;2022-07-23T23:49:25;20.90;81.90
63383;DHT22;49512;48.744;9.176;2022-07-23T23:51:51;21.00;81.80
63383;DHT22;49512;48.744;9.176;2022-07-23T23:54:16;20.90;82.00
63383;DHT22;49512;48.744;9.176;2022-07-23T23:56:42;20.80;82.50
63383;DHT22;49512;48.744;9.176;2022-07-23T23:59:08;20.70;81.80
